sensor_id;sensor_type;location;lat;lon;timestamp;pressure;altitude;pressure_sealevel;temperature;humidity
42067;BME280;27734;47.028;28.820;2023-05-21T00:00:12;100644.95;;;20.02;46.99
42067;BME280;27734;47.028;28.820;2023-05-21T00:03:00;100650.27;;;19.97;46.49
42067;BME280;27734;47.028;28.820;2023-05-21T00:05:29;100641.41;;;19.92;47.06
42067;BME280;27734;47.028;28.820;2023-05-21T00:07:57;100645.86;;;19.88;46.69
42067;BME280;27734;47.028;28.820;2023-05-21T00:10:26;100656.52;;;19.88;46.31
42067;BME280;27734;47.028;28.820;2023-05-21T00:12:54;100646.73;;;19.80;46.58
42067;BME280;27734;47.028;28.820;2023-05-21T00:15:23;100647.58;;;19.74;46.23
42067;BME280;27734;47.028;28.820;2023-05-21T00:17:51;100638.71;;;19.72;46.54
42067;BME280;27734;47.028;28.820;2023-05-21T00:20:20;100647.57;;;19.69;46.89
42067;BME280;27734;47.028;28.820;2023-05-21T00:22:48;100637.83;;;19.65;46.84
42067;BME280;27734;47.028;28.820;2023-05-21T00:25:17;100640.49;;;19.62;46.19
42067;BME280;27734;47.028;28.820;2023-05-21T00:27:45;100636.03;;;19.53;46.37
42067;BME280;27734;47.028;28.820;2023-05-21T00:30:14;100643.13;;;19.47;46.73
42067;BME280;27734;47.028;28.820;2023-05-21T00:32:42;100650.23;;;19.42;46.56
42067;BME280;27734;47.028;28.820;2023-05-21T00:35:11;100644.90;;;19.35;45.80
42067;BME280;27734;47.028;28.820;2023-05-21T00:37:40;100657.28;;;19.30;46.37
42067;BME280;27734;47.028;28.820;2023-05-21T00:40:10;100662.58;;;19.24;46.46
42067;BME280;27734;47.028;28.820;2023-05-21T00:42:39;100654.58;;;19.16;46.48
42067;BME280;27734;47.028;28.820;2023-05-21T00:45:09;100651.91;;;19.15;46.66
42067;BME280;27734;47.028;28.820;2023-05-21T00:47:38;100646.56;;;19.06;46.06
42067;BME280;27734;47.028;28.820;2023-05-21T00:50:09;100635.02;;;18.97;46.30
42067;BME280;27734;47.028;28.820;2023-05-21T00:52:38;100629.69;;;18.93;45.97
42067;BME280;27734;47.028;28.820;2023-05-21T00:55:09;100632.33;;;18.86;46.09
42067;BME280;27734;47.028;28.820;2023-05-21T00:57:39;100625.19;;;18.78;45.97
42067;BME280;27734;47.028;28.820;2023-05-21T01:00:11;100641.09;;;18.67;46.20
42067;BME280;27734;47.028;28.820;2023-05-21T01:02:41;100628.62;;;18.58;45.61
42067;BME280;27734;47.028;28.820;2023-05-21T01:05:11;100636.58;;;18.54;45.80
42067;BME280;27734;47.028;28.820;2023-05-21T01:07:40;100635.69;;;18.50;45.59
42067;BME280;27734;47.028;28.820;2023-05-21T01:10:11;100638.33;;;18.47;45.72
42067;BME280;27734;47.028;28.820;2023-05-21T01:12:41;100636.52;;;18.43;45.94
42067;BME280;27734;47.028;28.820;2023-05-21T01:15:11;100633.84;;;18.40;45.77
42067;BME280;27734;47.028;28.820;2023-05-21T01:17:41;100640.04;;;18.36;45.92
42067;BME280;27734;47.028;28.820;2023-05-21T01:20:12;100632.92;;;18.31;45.67
42067;BME280;27734;47.028;28.820;2023-05-21T01:22:49;100640.89;;;18.31;46.27
42067;BME280;27734;47.028;28.820;2023-05-21T01:25:18;100640.89;;;18.31;45.89
42067;BME280;27734;47.028;28.820;2023-05-21T01:27:47;100639.08;;;18.27;46.00
42067;BME280;27734;47.028;28.820;2023-05-21T01:30:16;100636.38;;;18.20;45.69
42067;BME280;27734;47.028;28.820;2023-05-21T01:32:49;100632.80;;;18.13;45.73
42067;BME280;27734;47.028;28.820;2023-05-21T01:35:26;100640.73;;;18.08;46.06
42067;BME280;27734;47.028;28.820;2023-05-21T01:38:02;100638.93;;;18.06;46.04
42067;BME280;27734;47.028;28.820;2023-05-21T01:40:37;100644.22;;;18.03;45.91
42067;BME280;27734;47.028;28.820;2023-05-21T01:43:08;100641.53;;;17.98;46.04
42067;BME280;27734;47.028;28.820;2023-05-21T01:45:38;100639.77;;;17.95;46.19
42067;BME280;27734;47.028;28.820;2023-05-21T01:48:08;100637.05;;;17.89;46.31
42067;BME280;27734;47.028;28.820;2023-05-21T01:50:42;100635.21;;;17.85;46.21
42067;BME280;27734;47.028;28.820;2023-05-21T01:53:11;100634.30;;;17.82;46.18
42067;BME280;27734;47.028;28.820;2023-05-21T01:55:39;100644.03;;;17.79;46.36
42067;BME280;27734;47.028;28.820;2023-05-21T01:58:08;100635.12;;;17.74;46.21
42067;BME280;27734;47.028;28.820;2023-05-21T02:00:37;100636.87;;;17.71;46.37
42067;BME280;27734;47.028;28.820;2023-05-21T02:03:07;100634.16;;;17.65;46.58
42067;BME280;27734;47.028;28.820;2023-05-21T02:05:35;100629.67;;;17.59;46.24
42067;BME280;27734;47.028;28.820;2023-05-21T02:08:04;100627.88;;;17.53;46.48
42067;BME280;27734;47.028;28.820;2023-05-21T02:10:35;100631.36;;;17.49;46.37
42067;BME280;27734;47.028;28.820;2023-05-21T02:13:03;100625.15;;;17.46;46.75
42067;BME280;27734;47.028;28.820;2023-05-21T02:15:32;100630.44;;;17.44;46.33
42067;BME280;27734;47.028;28.820;2023-05-21T02:18:01;100633.94;;;17.41;46.82
42067;BME280;27734;47.028;28.820;2023-05-21T02:20:30;100635.70;;;17.39;46.90
42067;BME280;27734;47.028;28.820;2023-05-21T02:22:58;100633.05;;;17.39;46.44
42067;BME280;27734;47.028;28.820;2023-05-21T02:25:27;100633.05;;;17.39;46.70
42067;BME280;27734;47.028;28.820;2023-05-21T02:27:55;100630.37;;;17.38;46.37
42067;BME280;27734;47.028;28.820;2023-05-21T02:30:24;100630.33;;;17.33;46.75
42067;BME280;27734;47.028;28.820;2023-05-21T02:32:54;100632.06;;;17.28;46.74
42067;BME280;27734;47.028;28.820;2023-05-21T02:35:25;100621.42;;;17.25;46.74
42067;BME280;27734;47.028;28.820;2023-05-21T02:37:54;100623.14;;;17.23;47.06
42067;BME280;27734;47.028;28.820;2023-05-21T02:40:25;100628.45;;;17.23;46.95
42067;BME280;27734;47.028;28.820;2023-05-21T02:42:54;100625.78;;;17.21;46.67
42067;BME280;27734;47.028;28.820;2023-05-21T02:45:23;100638.14;;;17.19;46.78
42067;BME280;27734;47.028;28.820;2023-05-21T02:47:51;100631.05;;;17.18;47.05
42067;BME280;27734;47.028;28.820;2023-05-21T02:50:20;100633.70;;;17.18;46.65
42067;BME280;27734;47.028;28.820;2023-05-21T02:52:53;100631.02;;;17.15;46.54
42067;BME280;27734;47.028;28.820;2023-05-21T02:55:22;100625.71;;;17.15;46.79
42067;BME280;27734;47.028;28.820;2023-05-21T02:57:51;100629.27;;;17.16;47.46
42067;BME280;27734;47.028;28.820;2023-05-21T03:00:20;100631.02;;;17.15;46.73
42067;BME280;27734;47.028;28.820;2023-05-21T03:02:48;100630.12;;;17.13;46.95
42067;BME280;27734;47.028;28.820;2023-05-21T03:05:17;100631.89;;;17.13;46.85
42067;BME280;27734;47.028;28.820;2023-05-21T03:07:45;100631.00;;;17.14;47.42
42067;BME280;27734;47.028;28.820;2023-05-21T03:10:14;100633.65;;;17.14;47.41
42067;BME280;27734;47.028;28.820;2023-05-21T03:12:43;100639.90;;;17.17;46.84
42067;BME280;27734;47.028;28.820;2023-05-21T03:15:13;100637.28;;;17.20;47.12
42067;BME280;27734;47.028;28.820;2023-05-21T03:17:42;100645.27;;;17.23;47.17
42067;BME280;27734;47.028;28.820;2023-05-21T03:20:11;100641.70;;;17.23;46.88
42067;BME280;27734;47.028;28.820;2023-05-21T03:22:44;100643.53;;;17.27;47.28
42067;BME280;27734;47.028;28.820;2023-05-21T03:25:13;100652.39;;;17.31;47.23
42067;BME280;27734;47.028;28.820;2023-05-21T03:27:43;100651.55;;;17.33;47.20
42067;BME280;27734;47.028;28.820;2023-05-21T03:30:24;100644.48;;;17.35;47.19
42067;BME280;27734;47.028;28.820;2023-05-21T03:33:09;100640.98;;;17.38;47.03
42067;BME280;27734;47.028;28.820;2023-05-21T03:35:38;100651.63;;;17.41;47.44
42067;BME280;27734;47.028;28.820;2023-05-21T03:38:07;100646.34;;;17.42;47.42
42067;BME280;27734;47.028;28.820;2023-05-21T03:40:36;100648.13;;;17.47;47.25
42067;BME280;27734;47.028;28.820;2023-05-21T03:43:04;100639.30;;;17.48;47.38
42067;BME280;27734;47.028;28.820;2023-05-21T03:45:33;100649.10;;;17.53;47.12
42067;BME280;27734;47.028;28.820;2023-05-21T03:48:25;100645.56;;;17.56;47.40
42067;BME280;27734;47.028;28.820;2023-05-21T03:50:54;100648.25;;;17.59;46.94
42067;BME280;27734;47.028;28.820;2023-05-21T03:53:24;100644.72;;;17.58;47.31
42067;BME280;27734;47.028;28.820;2023-05-21T03:55:53;100643.84;;;17.58;47.12
42067;BME280;27734;47.028;28.820;2023-05-21T03:58:23;100645.58;;;17.57;47.15
42067;BME280;27734;47.028;28.820;2023-05-21T04:00:52;100657.11;;;17.58;47.27
42067;BME280;27734;47.028;28.820;2023-05-21T04:03:21;100646.50;;;17.59;47.42
42067;BME280;27734;47.028;28.820;2023-05-21T04:05:49;100643.00;;;17.65;47.52
42067;BME280;27734;47.028;28.820;2023-05-21T04:08:18;100648.33;;;17.68;47.58
42067;BME280;27734;47.028;28.820;2023-05-21T04:10:47;100644.83;;;17.71;47.46
42067;BME280;27734;47.028;28.820;2023-05-21T04:13:16;100642.20;;;17.74;47.38
42067;BME280;27734;47.028;28.820;2023-05-21T04:15:45;100640.45;;;17.77;47.36
42067;BME280;27734;47.028;28.820;2023-05-21T04:18:13;100646.69;;;17.79;47.64
42067;BME280;27734;47.028;28.820;2023-05-21T04:20:43;100650.23;;;17.82;47.38
42067;BME280;27734;47.028;28.820;2023-05-21T04:23:13;100648.49;;;17.87;47.59
42067;BME280;27734;47.028;28.820;2023-05-21T04:25:41;100651.20;;;17.88;47.62
42067;BME280;27734;47.028;28.820;2023-05-21T04:28:10;100648.58;;;17.93;47.65
42067;BME280;27734;47.028;28.820;2023-05-21T04:30:38;100653.92;;;17.98;47.46
42067;BME280;27734;47.028;28.820;2023-05-21T04:33:07;100653.05;;;17.97;47.49
42067;BME280;27734;47.028;28.820;2023-05-21T04:35:37;100648.61;;;17.98;47.37
42067;BME280;27734;47.028;28.820;2023-05-21T04:38:11;100649.53;;;18.03;47.54
42067;BME280;27734;47.028;28.820;2023-05-21T04:40:40;100641.61;;;18.09;47.62
42067;BME280;27734;47.028;28.820;2023-05-21T04:43:10;100645.20;;;18.12;47.52
42067;BME280;27734;47.028;28.820;2023-05-21T04:45:40;100637.22;;;18.11;47.35
42067;BME280;27734;47.028;28.820;2023-05-21T04:48:09;100646.95;;;18.13;47.43
42067;BME280;27734;47.028;28.820;2023-05-21T04:50:37;100636.36;;;18.18;47.29
42067;BME280;27734;47.028;28.820;2023-05-21T04:53:08;100640.81;;;18.21;47.36
42067;BME280;27734;47.028;28.820;2023-05-21T04:55:37;100639.08;;;18.27;47.52
42067;BME280;27734;47.028;28.820;2023-05-21T04:58:06;100631.16;;;18.35;47.65
42067;BME280;27734;47.028;28.820;2023-05-21T05:00:38;100629.44;;;18.39;47.69
42067;BME280;27734;47.028;28.820;2023-05-21T05:03:09;100640.06;;;18.40;47.77
42067;BME280;27734;47.028;28.820;2023-05-21T05:05:38;100633.86;;;18.41;47.42
42067;BME280;27734;47.028;28.820;2023-05-21T05:08:07;100632.09;;;18.45;47.53
42067;BME280;27734;47.028;28.820;2023-05-21T05:10:36;100641.84;;;18.46;47.19
42067;BME280;27734;47.028;28.820;2023-05-21T05:13:04;100643.64;;;18.47;47.68
42067;BME280;27734;47.028;28.820;2023-05-21T05:15:33;100636.58;;;18.54;47.34
42067;BME280;27734;47.028;28.820;2023-05-21T05:18:02;100633.09;;;18.62;47.16
42067;BME280;27734;47.028;28.820;2023-05-21T05:20:30;100639.32;;;18.71;47.02
42067;BME280;27734;47.028;28.820;2023-05-21T05:22:59;100632.23;;;18.74;47.40
42067;BME280;27734;47.028;28.820;2023-05-21T05:25:28;100634.06;;;18.83;46.83
42067;BME280;27734;47.028;28.820;2023-05-21T05:27:56;100638.56;;;18.89;47.04
42067;BME280;27734;47.028;28.820;2023-05-21T05:30:25;100636.79;;;18.92;46.59
42067;BME280;27734;47.028;28.820;2023-05-21T05:32:54;100636.79;;;18.92;46.51
42067;BME280;27734;47.028;28.820;2023-05-21T05:35:23;100645.62;;;18.86;46.49
42067;BME280;27734;47.028;28.820;2023-05-21T05:37:51;100643.81;;;18.82;46.65
42067;BME280;27734;47.028;28.820;2023-05-21T05:40:20;100649.14;;;18.84;46.92
42067;BME280;27734;47.028;28.820;2023-05-21T05:42:48;100643.83;;;18.84;47.26
42067;BME280;27734;47.028;28.820;2023-05-21T05:45:19;100634.94;;;18.83;46.93
42067;BME280;27734;47.028;28.820;2023-05-21T05:47:48;100631.44;;;18.84;46.72
42067;BME280;27734;47.028;28.820;2023-05-21T05:50:17;100637.65;;;18.88;47.30
42067;BME280;27734;47.028;28.820;2023-05-21T05:52:45;100642.12;;;18.95;47.35
42067;BME280;27734;47.028;28.820;2023-05-21T05:55:17;100640.36;;;19.02;46.83
42067;BME280;27734;47.028;28.820;2023-05-21T05:57:45;100638.59;;;19.09;47.02
42067;BME280;27734;47.028;28.820;2023-05-21T06:00:16;100639.54;;;19.20;47.03
42067;BME280;27734;47.028;28.820;2023-05-21T06:02:46;100635.98;;;19.27;46.99
42067;BME280;27734;47.028;28.820;2023-05-21T06:05:15;100631.59;;;19.37;47.57
42067;BME280;27734;47.028;28.820;2023-05-21T06:07:44;100628.05;;;19.49;47.52
42067;BME280;27734;47.028;28.820;2023-05-21T06:10:12;100623.61;;;19.63;47.07
42067;BME280;27734;47.028;28.820;2023-05-21T06:12:41;100614.75;;;19.67;47.47
42067;BME280;27734;47.028;28.820;2023-05-21T06:15:10;100612.97;;;19.75;47.35
42067;BME280;27734;47.028;28.820;2023-05-21T06:17:39;100611.24;;;19.87;46.91
42067;BME280;27734;47.028;28.820;2023-05-21T06:20:10;100602.34;;;19.94;46.70
42067;BME280;27734;47.028;28.820;2023-05-21T06:22:38;100605.91;;;19.98;46.91
42067;BME280;27734;47.028;28.820;2023-05-21T06:25:09;100598.78;;;20.06;46.84
42067;BME280;27734;47.028;28.820;2023-05-21T06:27:38;100594.33;;;20.08;46.71
42067;BME280;27734;47.028;28.820;2023-05-21T06:30:10;100592.54;;;20.11;46.80
42067;BME280;27734;47.028;28.820;2023-05-21T06:32:39;100593.44;;;20.18;47.23
42067;BME280;27734;47.028;28.820;2023-05-21T06:35:08;100588.09;;;20.23;46.67
42067;BME280;27734;47.028;28.820;2023-05-21T06:37:37;100594.29;;;20.28;46.23
42067;BME280;27734;47.028;28.820;2023-05-21T06:40:09;100595.14;;;20.36;46.22
42067;BME280;27734;47.028;28.820;2023-05-21T06:42:38;100588.91;;;20.45;47.10
42067;BME280;27734;47.028;28.820;2023-05-21T06:45:42;100591.52;;;20.60;46.30
42067;BME280;27734;47.028;28.820;2023-05-21T06:48:30;100582.59;;;20.74;47.19
42067;BME280;27734;47.028;28.820;2023-05-21T06:50:59;100579.89;;;20.80;46.29
42067;BME280;27734;47.028;28.820;2023-05-21T06:53:27;100579.83;;;20.92;46.36
42067;BME280;27734;47.028;28.820;2023-05-21T06:55:56;100578.03;;;21.00;45.76
42067;BME280;27734;47.028;28.820;2023-05-21T06:58:40;100565.53;;;21.06;45.79
42067;BME280;27734;47.028;28.820;2023-05-21T07:01:08;100566.33;;;21.18;45.92
42067;BME280;27734;47.028;28.820;2023-05-21T07:03:38;100567.09;;;21.34;46.39
42067;BME280;27734;47.028;28.820;2023-05-21T07:06:09;100568.81;;;21.49;45.86
42067;BME280;27734;47.028;28.820;2023-05-21T07:08:38;100568.69;;;21.63;45.75
42067;BME280;27734;47.028;28.820;2023-05-21T07:11:07;100564.99;;;21.77;45.61
42067;BME280;27734;47.028;28.820;2023-05-21T07:13:36;100560.41;;;21.93;45.60
42067;BME280;27734;47.028;28.820;2023-05-21T07:16:06;100569.95;;;22.15;45.49
42067;BME280;27734;47.028;28.820;2023-05-21T07:18:34;100563.58;;;22.29;45.62
42067;BME280;27734;47.028;28.820;2023-05-21T07:21:03;100561.77;;;22.34;44.65
42067;BME280;27734;47.028;28.820;2023-05-21T07:23:32;100562.49;;;22.47;44.91
42067;BME280;27734;47.028;28.820;2023-05-21T07:26:01;100569.48;;;22.58;44.10
42067;BME280;27734;47.028;28.820;2023-05-21T07:28:30;100568.41;;;22.72;44.52
42067;BME280;27734;47.028;28.820;2023-05-21T07:30:58;100569.08;;;22.89;44.10
42067;BME280;27734;47.028;28.820;2023-05-21T07:33:33;100554.60;;;23.03;44.05
42067;BME280;27734;47.028;28.820;2023-05-21T07:36:02;100553.55;;;23.16;43.95
42067;BME280;27734;47.028;28.820;2023-05-21T07:38:31;100548.91;;;23.27;43.49
42067;BME280;27734;47.028;28.820;2023-05-21T07:41:00;100553.94;;;23.47;43.86
42067;BME280;27734;47.028;28.820;2023-05-21T07:43:28;100553.70;;;23.61;43.73
42067;BME280;27734;47.028;28.820;2023-05-21T07:45:58;100548.35;;;23.61;43.41
42067;BME280;27734;47.028;28.820;2023-05-21T07:48:27;100539.34;;;23.67;43.45
42067;BME280;27734;47.028;28.820;2023-05-21T07:50:58;100550.70;;;23.80;43.28
42067;BME280;27734;47.028;28.820;2023-05-21T07:53:27;100543.49;;;23.85;42.93
42067;BME280;27734;47.028;28.820;2023-05-21T07:56:00;100540.61;;;23.96;42.91
42067;BME280;27734;47.028;28.820;2023-05-21T07:58:30;100546.64;;;24.07;42.83
42067;BME280;27734;47.028;28.820;2023-05-21T08:00:59;100540.59;;;23.97;42.33
42067;BME280;27734;47.028;28.820;2023-05-21T08:03:29;100542.19;;;24.08;42.47
42067;BME280;27734;47.028;28.820;2023-05-21T08:05:58;100541.28;;;24.07;42.21
42067;BME280;27734;47.028;28.820;2023-05-21T08:08:27;100535.77;;;24.15;42.10
42067;BME280;27734;47.028;28.820;2023-05-21T08:10:57;100538.98;;;24.32;42.29
42067;BME280;27734;47.028;28.820;2023-05-21T08:13:27;100535.02;;;24.52;42.05
42067;BME280;27734;47.028;28.820;2023-05-21T08:15:55;100536.44;;;24.71;42.45
42067;BME280;27734;47.028;28.820;2023-05-21T08:18:24;100548.64;;;24.85;41.67
42067;BME280;27734;47.028;28.820;2023-05-21T08:20:54;100545.25;;;24.76;41.37
42067;BME280;27734;47.028;28.820;2023-05-21T08:23:24;100542.57;;;24.76;41.70
42067;BME280;27734;47.028;28.820;2023-05-21T08:25:55;100541.39;;;24.88;41.45
42067;BME280;27734;47.028;28.820;2023-05-21T08:28:25;100544.17;;;24.84;41.33
42067;BME280;27734;47.028;28.820;2023-05-21T08:30:55;100544.73;;;25.00;40.98
42067;BME280;27734;47.028;28.820;2023-05-21T08:33:24;100539.19;;;25.07;41.15
42067;BME280;27734;47.028;28.820;2023-05-21T08:35:54;100534.50;;;25.16;41.21
42067;BME280;27734;47.028;28.820;2023-05-21T08:38:30;100538.74;;;25.26;40.85
42067;BME280;27734;47.028;28.820;2023-05-21T08:41:20;100537.80;;;25.27;41.07
42067;BME280;27734;47.028;28.820;2023-05-21T08:43:54;100541.28;;;25.32;40.77
42067;BME280;27734;47.028;28.820;2023-05-21T08:46:23;100538.45;;;25.38;40.25
42067;BME280;27734;47.028;28.820;2023-05-21T08:48:53;100538.45;;;25.38;40.19
42067;BME280;27734;47.028;28.820;2023-05-21T08:51:23;100533.86;;;25.43;39.97
42067;BME280;27734;47.028;28.820;2023-05-21T08:53:53;100538.33;;;25.43;40.04
42067;BME280;27734;47.028;28.820;2023-05-21T08:56:24;100528.60;;;25.39;40.09
42067;BME280;27734;47.028;28.820;2023-05-21T08:58:55;100542.75;;;25.45;40.09
42067;BME280;27734;47.028;28.820;2023-05-21T09:01:27;100531.89;;;25.50;39.76
42067;BME280;27734;47.028;28.820;2023-05-21T09:04:04;100539.12;;;25.48;39.71
42067;BME280;27734;47.028;28.820;2023-05-21T09:06:33;100516.80;;;25.44;39.64
42067;BME280;27734;47.028;28.820;2023-05-21T09:09:08;100530.86;;;25.56;40.00
42067;BME280;27734;47.028;28.820;2023-05-21T09:11:45;100521.86;;;25.57;39.79
42067;BME280;27734;47.028;28.820;2023-05-21T09:14:16;100529.40;;;25.42;39.85
42067;BME280;27734;47.028;28.820;2023-05-21T09:16:58;100523.23;;;25.39;39.96
42067;BME280;27734;47.028;28.820;2023-05-21T09:19:28;100525.92;;;25.39;40.13
42067;BME280;27734;47.028;28.820;2023-05-21T09:22:02;100522.05;;;25.49;40.41
42067;BME280;27734;47.028;28.820;2023-05-21T09:24:31;100526.32;;;25.58;39.97
42067;BME280;27734;47.028;28.820;2023-05-21T09:27:00;100536.91;;;25.64;39.55
42067;BME280;27734;47.028;28.820;2023-05-21T09:29:29;100527.98;;;25.63;39.44
42067;BME280;27734;47.028;28.820;2023-05-21T09:32:06;100526.24;;;25.61;39.76
42067;BME280;27734;47.028;28.820;2023-05-21T09:34:36;100524.30;;;25.66;39.81
42067;BME280;27734;47.028;28.820;2023-05-21T09:37:06;100516.98;;;25.73;39.45
42067;BME280;27734;47.028;28.820;2023-05-21T09:39:39;100522.86;;;25.87;39.83
42067;BME280;27734;47.028;28.820;2023-05-21T09:42:10;100514.53;;;25.98;39.65
42067;BME280;27734;47.028;28.820;2023-05-21T09:44:39;100520.88;;;25.94;39.55
42067;BME280;27734;47.028;28.820;2023-05-21T09:47:08;100519.92;;;25.96;39.59
42067;BME280;27734;47.028;28.820;2023-05-21T09:49:37;100531.63;;;25.94;39.36
42067;BME280;27734;47.028;28.820;2023-05-21T09:52:06;100523.06;;;25.79;39.42
42067;BME280;27734;47.028;28.820;2023-05-21T09:54:35;100526.62;;;25.80;39.68
42067;BME280;27734;47.028;28.820;2023-05-21T09:57:04;100521.45;;;25.72;39.38
42067;BME280;27734;47.028;28.820;2023-05-21T09:59:38;100517.70;;;25.79;39.49
42067;BME280;27734;47.028;28.820;2023-05-21T10:02:18;100506.66;;;25.90;39.70
42067;BME280;27734;47.028;28.820;2023-05-21T10:04:49;100511.91;;;25.95;39.77
42067;BME280;27734;47.028;28.820;2023-05-21T10:07:19;100515.67;;;25.88;39.36
42067;BME280;27734;47.028;28.820;2023-05-21T10:09:53;100509.34;;;25.90;39.22
42067;BME280;27734;47.028;28.820;2023-05-21T10:12:23;100506.30;;;26.04;39.41
42067;BME280;27734;47.028;28.820;2023-05-21T10:14:57;100511.42;;;26.13;39.08
42067;BME280;27734;47.028;28.820;2023-05-21T10:17:29;100492.33;;;26.23;38.89
42067;BME280;27734;47.028;28.820;2023-05-21T10:19:59;100498.66;;;26.20;39.35
42067;BME280;27734;47.028;28.820;2023-05-21T10:22:28;100506.73;;;26.20;39.52
42067;BME280;27734;47.028;28.820;2023-05-21T10:24:57;100502.18;;;26.22;39.33
42067;BME280;27734;47.028;28.820;2023-05-21T10:27:27;100499.49;;;26.22;39.00
42067;BME280;27734;47.028;28.820;2023-05-21T10:29:57;100496.84;;;26.21;38.75
42067;BME280;27734;47.028;28.820;2023-05-21T10:32:26;100484.30;;;26.21;39.26
42067;BME280;27734;47.028;28.820;2023-05-21T10:34:56;100495.02;;;26.23;39.32
42067;BME280;27734;47.028;28.820;2023-05-21T10:37:26;100491.56;;;26.17;38.95
42067;BME280;27734;47.028;28.820;2023-05-21T10:39:56;100496.80;;;26.22;39.22
42067;BME280;27734;47.028;28.820;2023-05-21T10:45:41;100497.77;;;25.87;38.37
42067;BME280;27734;47.028;28.820;2023-05-21T10:48:32;100494.67;;;25.69;38.78
42067;BME280;27734;47.028;28.820;2023-05-21T10:51:17;100495.58;;;25.70;39.26
42067;BME280;27734;47.028;28.820;2023-05-21T10:54:07;100483.25;;;25.61;39.44
42067;BME280;27734;47.028;28.820;2023-05-21T10:56:48;100482.42;;;25.59;39.52
42067;BME280;27734;47.028;28.820;2023-05-21T10:59:33;100481.44;;;25.61;39.15
42067;BME280;27734;47.028;28.820;2023-05-21T11:02:05;100476.89;;;25.65;39.16
42067;BME280;27734;47.028;28.820;2023-05-21T11:04:34;100473.09;;;25.72;39.82
42067;BME280;27734;47.028;28.820;2023-05-21T11:07:06;100473.78;;;25.80;39.65
42067;BME280;27734;47.028;28.820;2023-05-21T11:09:35;100472.58;;;25.91;39.38
42067;BME280;27734;47.028;28.820;2023-05-21T11:12:06;100486.10;;;25.88;39.35
42067;BME280;27734;47.028;28.820;2023-05-21T11:14:37;100472.49;;;25.94;39.38
42067;BME280;27734;47.028;28.820;2023-05-21T11:17:11;100477.64;;;26.03;39.18
42067;BME280;27734;47.028;28.820;2023-05-21T11:19:40;100482.23;;;25.99;39.39
42067;BME280;27734;47.028;28.820;2023-05-21T11:22:20;100472.92;;;25.78;39.39
42067;BME280;27734;47.028;28.820;2023-05-21T11:24:49;100482.62;;;25.84;38.99
42067;BME280;27734;47.028;28.820;2023-05-21T11:27:35;100470.76;;;25.91;39.28
42067;BME280;27734;47.028;28.820;2023-05-21T11:30:06;100472.13;;;26.08;39.38
42067;BME280;27734;47.028;28.820;2023-05-21T11:32:37;100470.72;;;26.26;38.82
42067;BME280;27734;47.028;28.820;2023-05-21T11:35:07;100466.53;;;26.45;39.05
42067;BME280;27734;47.028;28.820;2023-05-21T11:37:41;100465.05;;;26.65;38.12
42067;BME280;27734;47.028;28.820;2023-05-21T11:40:21;100465.14;;;26.62;38.48
42067;BME280;27734;47.028;28.820;2023-05-21T11:42:53;100458.27;;;26.51;38.47
42067;BME280;27734;47.028;28.820;2023-05-21T11:45:26;100453.22;;;26.41;37.71
42067;BME280;27734;47.028;28.820;2023-05-21T11:47:55;100462.11;;;26.43;38.38
42067;BME280;27734;47.028;28.820;2023-05-21T11:50:25;100457.87;;;26.35;38.25
42067;BME280;27734;47.028;28.820;2023-05-21T11:52:57;100451.59;;;26.35;38.42
42067;BME280;27734;47.028;28.820;2023-05-21T11:55:27;100461.84;;;26.22;38.31
42067;BME280;27734;47.028;28.820;2023-05-21T11:57:55;100466.63;;;26.12;38.36
42067;BME280;27734;47.028;28.820;2023-05-21T12:00:25;100463.11;;;26.10;38.42
42067;BME280;27734;47.028;28.820;2023-05-21T12:02:54;100464.94;;;26.08;38.79
42067;BME280;27734;47.028;28.820;2023-05-21T12:05:23;100463.47;;;25.96;37.72
42067;BME280;27734;47.028;28.820;2023-05-21T12:07:51;100455.84;;;25.81;38.24
42067;BME280;27734;47.028;28.820;2023-05-21T12:10:21;100457.83;;;25.74;37.89
42067;BME280;27734;47.028;28.820;2023-05-21T12:12:50;100459.61;;;25.74;37.94
42067;BME280;27734;47.028;28.820;2023-05-21T12:15:20;100451.38;;;25.80;38.50
42067;BME280;27734;47.028;28.820;2023-05-21T12:17:50;100449.34;;;25.88;38.37
42067;BME280;27734;47.028;28.820;2023-05-21T12:20:19;100450.89;;;25.98;38.34
42067;BME280;27734;47.028;28.820;2023-05-21T12:22:49;100453.22;;;26.11;38.11
42067;BME280;27734;47.028;28.820;2023-05-21T12:25:18;100451.09;;;26.22;38.20
42067;BME280;27734;47.028;28.820;2023-05-21T12:27:48;100451.40;;;26.41;37.90
42067;BME280;27734;47.028;28.820;2023-05-21T12:30:19;100450.11;;;26.54;37.35
42067;BME280;27734;47.028;28.820;2023-05-21T12:32:48;100443.52;;;26.65;37.47
42067;BME280;27734;47.028;28.820;2023-05-21T12:35:23;100451.13;;;26.80;37.57
42067;BME280;27734;47.028;28.820;2023-05-21T12:37:52;100448.34;;;26.83;37.54
42067;BME280;27734;47.028;28.820;2023-05-21T12:40:20;100445.37;;;26.91;37.16
42067;BME280;27734;47.028;28.820;2023-05-21T12:42:49;100444.70;;;26.84;37.06
42067;BME280;27734;47.028;28.820;2023-05-21T12:45:18;100440.87;;;26.63;36.23
42067;BME280;27734;47.028;28.820;2023-05-21T12:47:49;100443.28;;;26.43;36.64
42067;BME280;27734;47.028;28.820;2023-05-21T12:50:23;100447.06;;;26.37;36.68
42067;BME280;27734;47.028;28.820;2023-05-21T12:52:54;100453.82;;;26.21;36.39
42067;BME280;27734;47.028;28.820;2023-05-21T12:55:24;100460.51;;;26.07;36.44
42067;BME280;27734;47.028;28.820;2023-05-21T12:58:01;100452.62;;;26.01;36.76
42067;BME280;27734;47.028;28.820;2023-05-21T13:00:32;100456.80;;;25.78;37.41